sensor_id;sensor_type;location;lat;lon;timestamp;pressure;altitude;pressure_sealevel;temperature
20092;BMP180;10205;49.678;6.560;2022-11-14T00:00:28;99860.00;;;9.20
20092;BMP180;10205;49.678;6.560;2022-11-14T00:02:59;99861.00;;;9.20
20092;BMP180;10205;49.678;6.560;2022-11-14T00:05:27;99863.00;;;9.20
20092;BMP180;10205;49.678;6.560;2022-11-14T00:07:54;99861.00;;;9.10
20092;BMP180;10205;49.678;6.560;2022-11-14T00:10:23;99857.00;;;9.10
20092;BMP180;10205;49.678;6.560;2022-11-14T00:12:50;99865.00;;;9.10
20092;BMP180;10205;49.678;6.560;2022-11-14T00:15:18;99829.00;;;9.10
20092;BMP180;10205;49.678;6.560;2022-11-14T00:17:46;99851.00;;;9.10
20092;BMP180;10205;49.678;6.560;2022-11-14T00:20:13;99852.00;;;9.10
20092;BMP180;10205;49.678;6.560;2022-11-14T00:22:40;99846.00;;;9.10
20092;BMP180;10205;49.678;6.560;2022-11-14T00:25:09;99862.00;;;9.00
20092;BMP180;10205;49.678;6.560;2022-11-14T00:27:38;99845.00;;;9.00
20092;BMP180;10205;49.678;6.560;2022-11-14T00:30:07;99844.00;;;9.00
20092;BMP180;10205;49.678;6.560;2022-11-14T00:32:34;99846.00;;;9.00
20092;BMP180;10205;49.678;6.560;2022-11-14T00:35:01;99844.00;;;9.00
20092;BMP180;10205;49.678;6.560;2022-11-14T00:37:28;99832.00;;;9.00
20092;BMP180;10205;49.678;6.560;2022-11-14T00:39:56;99834.00;;;9.00
20092;BMP180;10205;49.678;6.560;2022-11-14T00:42:23;99832.00;;;9.00
20092;BMP180;10205;49.678;6.560;2022-11-14T00:44:54;99826.00;;;8.90
20092;BMP180;10205;49.678;6.560;2022-11-14T00:47:22;99832.00;;;8.90
20092;BMP180;10205;49.678;6.560;2022-11-14T00:49:49;99824.00;;;8.90
20092;BMP180;10205;49.678;6.560;2022-11-14T00:52:16;99818.00;;;8.90
20092;BMP180;10205;49.678;6.560;2022-11-14T00:54:45;99823.00;;;8.90
20092;BMP180;10205;49.678;6.560;2022-11-14T00:57:13;99826.00;;;8.90
20092;BMP180;10205;49.678;6.560;2022-11-14T00:59:40;99830.00;;;8.90
20092;BMP180;10205;49.678;6.560;2022-11-14T01:02:09;99822.00;;;8.90
20092;BMP180;10205;49.678;6.560;2022-11-14T01:04:36;99806.00;;;8.90
20092;BMP180;10205;49.678;6.560;2022-11-14T01:07:03;99820.00;;;8.90
20092;BMP180;10205;49.678;6.560;2022-11-14T01:09:30;99821.00;;;8.90
20092;BMP180;10205;49.678;6.560;2022-11-14T01:11:57;99818.00;;;8.90
20092;BMP180;10205;49.678;6.560;2022-11-14T01:14:25;99812.00;;;8.80
20092;BMP180;10205;49.678;6.560;2022-11-14T01:16:52;99832.00;;;8.80
20092;BMP180;10205;49.678;6.560;2022-11-14T01:19:21;99826.00;;;8.80
20092;BMP180;10205;49.678;6.560;2022-11-14T01:21:48;99819.00;;;8.80
20092;BMP180;10205;49.678;6.560;2022-11-14T01:24:17;99818.00;;;8.80
20092;BMP180;10205;49.678;6.560;2022-11-14T01:26:45;99804.00;;;8.80
20092;BMP180;10205;49.678;6.560;2022-11-14T01:29:12;99803.00;;;8.80
20092;BMP180;10205;49.678;6.560;2022-11-14T01:31:39;99796.00;;;8.80
20092;BMP180;10205;49.678;6.560;2022-11-14T01:34:06;99798.00;;;8.80
20092;BMP180;10205;49.678;6.560;2022-11-14T01:36:35;99798.00;;;8.80
20092;BMP180;10205;49.678;6.560;2022-11-14T01:39:02;99809.00;;;8.80
20092;BMP180;10205;49.678;6.560;2022-11-14T01:41:31;99804.00;;;8.80
20092;BMP180;10205;49.678;6.560;2022-11-14T01:43:58;99802.00;;;8.80
20092;BMP180;10205;49.678;6.560;2022-11-14T01:46:29;99791.00;;;8.70
20092;BMP180;10205;49.678;6.560;2022-11-14T01:49:02;99799.00;;;8.70
20092;BMP180;10205;49.678;6.560;2022-11-14T01:51:36;99777.00;;;8.70
20092;BMP180;10205;49.678;6.560;2022-11-14T01:54:10;99800.00;;;8.70
20092;BMP180;10205;49.678;6.560;2022-11-14T01:56:45;99779.00;;;8.70
20092;BMP180;10205;49.678;6.560;2022-11-14T01:59:19;99774.00;;;8.70
20092;BMP180;10205;49.678;6.560;2022-11-14T02:01:51;99778.00;;;8.70
20092;BMP180;10205;49.678;6.560;2022-11-14T02:04:23;99775.00;;;8.70
20092;BMP180;10205;49.678;6.560;2022-11-14T02:07:00;99781.00;;;8.70
20092;BMP180;10205;49.678;6.560;2022-11-14T02:09:33;99774.00;;;8.70
20092;BMP180;10205;49.678;6.560;2022-11-14T02:12:06;99772.00;;;8.60
20092;BMP180;10205;49.678;6.560;2022-11-14T02:14:36;99762.00;;;8.60
20092;BMP180;10205;49.678;6.560;2022-11-14T02:17:04;99768.00;;;8.70
20092;BMP180;10205;49.678;6.560;2022-11-14T02:19:43;99758.00;;;8.60
20092;BMP180;10205;49.678;6.560;2022-11-14T02:22:12;99762.00;;;8.70
20092;BMP180;10205;49.678;6.560;2022-11-14T02:24:39;99760.00;;;8.60
20092;BMP180;10205;49.678;6.560;2022-11-14T02:27:09;99755.00;;;8.70
20092;BMP180;10205;49.678;6.560;2022-11-14T02:29:38;99760.00;;;8.60
20092;BMP180;10205;49.678;6.560;2022-11-14T02:32:05;99744.00;;;8.70
20092;BMP180;10205;49.678;6.560;2022-11-14T02:34:33;99737.00;;;8.60
20092;BMP180;10205;49.678;6.560;2022-11-14T02:37:00;99744.00;;;8.70
20092;BMP180;10205;49.678;6.560;2022-11-14T02:39:28;99746.00;;;8.70
20092;BMP180;10205;49.678;6.560;2022-11-14T02:41:55;99739.00;;;8.60
20092;BMP180;10205;49.678;6.560;2022-11-14T02:44:22;99731.00;;;8.70
20092;BMP180;10205;49.678;6.560;2022-11-14T02:46:50;99732.00;;;8.70
20092;BMP180;10205;49.678;6.560;2022-11-14T02:49:17;99721.00;;;8.60
20092;BMP180;10205;49.678;6.560;2022-11-14T02:51:45;99723.00;;;8.70
20092;BMP180;10205;49.678;6.560;2022-11-14T02:54:12;99720.00;;;8.70
20092;BMP180;10205;49.678;6.560;2022-11-14T02:56:40;99715.00;;;8.70
20092;BMP180;10205;49.678;6.560;2022-11-14T02:59:08;99702.00;;;8.70
20092;BMP180;10205;49.678;6.560;2022-11-14T03:01:35;99723.00;;;8.70
20092;BMP180;10205;49.678;6.560;2022-11-14T03:04:02;99718.00;;;8.70
20092;BMP180;10205;49.678;6.560;2022-11-14T03:06:29;99702.00;;;8.70
20092;BMP180;10205;49.678;6.560;2022-11-14T03:08:57;99706.00;;;8.70
20092;BMP180;10205;49.678;6.560;2022-11-14T03:11:24;99709.00;;;8.60
20092;BMP180;10205;49.678;6.560;2022-11-14T03:13:52;99702.00;;;8.60
20092;BMP180;10205;49.678;6.560;2022-11-14T03:16:19;99699.00;;;8.60
20092;BMP180;10205;49.678;6.560;2022-11-14T03:18:47;99698.00;;;8.60
20092;BMP180;10205;49.678;6.560;2022-11-14T03:21:17;99717.00;;;8.60
20092;BMP180;10205;49.678;6.560;2022-11-14T03:23:44;99695.00;;;8.60
20092;BMP180;10205;49.678;6.560;2022-11-14T03:26:14;99700.00;;;8.60
20092;BMP180;10205;49.678;6.560;2022-11-14T03:28:42;99690.00;;;8.60
20092;BMP180;10205;49.678;6.560;2022-11-14T03:31:13;99695.00;;;8.60
20092;BMP180;10205;49.678;6.560;2022-11-14T03:33:40;99700.00;;;8.60
20092;BMP180;10205;49.678;6.560;2022-11-14T03:36:08;99692.00;;;8.60
20092;BMP180;10205;49.678;6.560;2022-11-14T03:38:35;99694.00;;;8.60
20092;BMP180;10205;49.678;6.560;2022-11-14T03:41:03;99681.00;;;8.60
20092;BMP180;10205;49.678;6.560;2022-11-14T03:43:32;99688.00;;;8.60
20092;BMP180;10205;49.678;6.560;2022-11-14T03:46:01;99692.00;;;8.60
20092;BMP180;10205;49.678;6.560;2022-11-14T03:48:30;99686.00;;;8.60
20092;BMP180;10205;49.678;6.560;2022-11-14T03:50:57;99695.00;;;8.60
20092;BMP180;10205;49.678;6.560;2022-11-14T03:53:25;99682.00;;;8.60
20092;BMP180;10205;49.678;6.560;2022-11-14T03:55:54;99675.00;;;8.60
20092;BMP180;10205;49.678;6.560;2022-11-14T03:58:21;99669.00;;;8.60
20092;BMP180;10205;49.678;6.560;2022-11-14T04:00:48;99668.00;;;8.60
20092;BMP180;10205;49.678;6.560;2022-11-14T04:03:15;99660.00;;;8.60
20092;BMP180;10205;49.678;6.560;2022-11-14T04:05:44;99658.00;;;8.60
20092;BMP180;10205;49.678;6.560;2022-11-14T04:08:12;99661.00;;;8.60
20092;BMP180;10205;49.678;6.560;2022-11-14T04:10:39;99654.00;;;8.60
20092;BMP180;10205;49.678;6.560;2022-11-14T04:13:07;99658.00;;;8.60
20092;BMP180;10205;49.678;6.560;2022-11-14T04:15:35;99656.00;;;8.60
20092;BMP180;10205;49.678;6.560;2022-11-14T04:18:02;99658.00;;;8.60
20092;BMP180;10205;49.678;6.560;2022-11-14T04:20:30;99650.00;;;8.60
20092;BMP180;10205;49.678;6.560;2022-11-14T04:22:59;99664.00;;;8.60
20092;BMP180;10205;49.678;6.560;2022-11-14T04:25:26;99650.00;;;8.60
20092;BMP180;10205;49.678;6.560;2022-11-14T04:27:53;99650.00;;;8.60
20092;BMP180;10205;49.678;6.560;2022-11-14T04:30:20;99655.00;;;8.60
20092;BMP180;10205;49.678;6.560;2022-11-14T04:32:47;99651.00;;;8.60
20092;BMP180;10205;49.678;6.560;2022-11-14T04:35:15;99653.00;;;8.60
20092;BMP180;10205;49.678;6.560;2022-11-14T04:37:42;99654.00;;;8.60
20092;BMP180;10205;49.678;6.560;2022-11-14T04:40:13;99656.00;;;8.60
20092;BMP180;10205;49.678;6.560;2022-11-14T04:42:40;99647.00;;;8.60
20092;BMP180;10205;49.678;6.560;2022-11-14T04:45:10;99630.00;;;8.60
20092;BMP180;10205;49.678;6.560;2022-11-14T04:47:39;99641.00;;;8.60
20092;BMP180;10205;49.678;6.560;2022-11-14T04:50:08;99629.00;;;8.60
20092;BMP180;10205;49.678;6.560;2022-11-14T04:52:36;99628.00;;;8.60
20092;BMP180;10205;49.678;6.560;2022-11-14T04:55:03;99630.00;;;8.60
20092;BMP180;10205;49.678;6.560;2022-11-14T04:57:32;99642.00;;;8.60
20092;BMP180;10205;49.678;6.560;2022-11-14T04:59:59;99642.00;;;8.60
20092;BMP180;10205;49.678;6.560;2022-11-14T05:02:30;99649.00;;;8.60
20092;BMP180;10205;49.678;6.560;2022-11-14T05:04:58;99646.00;;;8.60
20092;BMP180;10205;49.678;6.560;2022-11-14T05:07:25;99641.00;;;8.60
20092;BMP180;10205;49.678;6.560;2022-11-14T05:09:53;99640.00;;;8.60
20092;BMP180;10205;49.678;6.560;2022-11-14T05:12:21;99636.00;;;8.60
20092;BMP180;10205;49.678;6.560;2022-11-14T05:14:50;99629.00;;;8.50
20092;BMP180;10205;49.678;6.560;2022-11-14T05:17:17;99631.00;;;8.50
20092;BMP180;10205;49.678;6.560;2022-11-14T05:19:44;99618.00;;;8.50
20092;BMP180;10205;49.678;6.560;2022-11-14T05:22:11;99630.00;;;8.50
20092;BMP180;10205;49.678;6.560;2022-11-14T05:24:42;99632.00;;;8.50
20092;BMP180;10205;49.678;6.560;2022-11-14T05:27:09;99620.00;;;8.50
20092;BMP180;10205;49.678;6.560;2022-11-14T05:29:36;99615.00;;;8.50
20092;BMP180;10205;49.678;6.560;2022-11-14T05:32:05;99623.00;;;8.40
20092;BMP180;10205;49.678;6.560;2022-11-14T05:34:33;99625.00;;;8.40
20092;BMP180;10205;49.678;6.560;2022-11-14T05:37:00;99622.00;;;8.40
20092;BMP180;10205;49.678;6.560;2022-11-14T05:39:28;99635.00;;;8.40
20092;BMP180;10205;49.678;6.560;2022-11-14T05:41:56;99628.00;;;8.40
20092;BMP180;10205;49.678;6.560;2022-11-14T05:44:23;99615.00;;;8.40
20092;BMP180;10205;49.678;6.560;2022-11-14T05:46:50;99617.00;;;8.40
20092;BMP180;10205;49.678;6.560;2022-11-14T05:49:19;99611.00;;;8.30
20092;BMP180;10205;49.678;6.560;2022-11-14T05:51:46;99603.00;;;8.30
20092;BMP180;10205;49.678;6.560;2022-11-14T05:54:16;99618.00;;;8.40
20092;BMP180;10205;49.678;6.560;2022-11-14T05:56:44;99598.00;;;8.40
20092;BMP180;10205;49.678;6.560;2022-11-14T05:59:11;99581.00;;;8.40
20092;BMP180;10205;49.678;6.560;2022-11-14T06:01:38;99589.00;;;8.40
20092;BMP180;10205;49.678;6.560;2022-11-14T06:04:05;99589.00;;;8.40
20092;BMP180;10205;49.678;6.560;2022-11-14T06:06:34;99596.00;;;8.40
20092;BMP180;10205;49.678;6.560;2022-11-14T06:09:04;99603.00;;;8.40
20092;BMP180;10205;49.678;6.560;2022-11-14T06:11:31;99597.00;;;8.40
20092;BMP180;10205;49.678;6.560;2022-11-14T06:13:58;99604.00;;;8.40
20092;BMP180;10205;49.678;6.560;2022-11-14T06:16:25;99608.00;;;8.40
20092;BMP180;10205;49.678;6.560;2022-11-14T06:18:53;99602.00;;;8.50
20092;BMP180;10205;49.678;6.560;2022-11-14T06:21:23;99598.00;;;8.40
20092;BMP180;10205;49.678;6.560;2022-11-14T06:23:52;99599.00;;;8.50
20092;BMP180;10205;49.678;6.560;2022-11-14T06:26:22;99590.00;;;8.40
20092;BMP180;10205;49.678;6.560;2022-11-14T06:28:52;99596.00;;;8.40
20092;BMP180;10205;49.678;6.560;2022-11-14T06:31:20;99578.00;;;8.40
20092;BMP180;10205;49.678;6.560;2022-11-14T06:33:48;99589.00;;;8.40
20092;BMP180;10205;49.678;6.560;2022-11-14T06:36:16;99585.00;;;8.40
20092;BMP180;10205;49.678;6.560;2022-11-14T06:38:43;99578.00;;;8.40
20092;BMP180;10205;49.678;6.560;2022-11-14T06:41:16;99591.00;;;8.40
20092;BMP180;10205;49.678;6.560;2022-11-14T06:43:49;99586.00;;;8.40
20092;BMP180;10205;49.678;6.560;2022-11-14T06:46:20;99587.00;;;8.40
20092;BMP180;10205;49.678;6.560;2022-11-14T06:48:49;99589.00;;;8.40
20092;BMP180;10205;49.678;6.560;2022-11-14T06:51:17;99592.00;;;8.40
20092;BMP180;10205;49.678;6.560;2022-11-14T06:53:46;99582.00;;;8.50
20092;BMP180;10205;49.678;6.560;2022-11-14T06:56:16;99587.00;;;8.50
20092;BMP180;10205;49.678;6.560;2022-11-14T06:58:47;99587.00;;;8.50
20092;BMP180;10205;49.678;6.560;2022-11-14T07:01:17;99574.00;;;8.50
20092;BMP180;10205;49.678;6.560;2022-11-14T07:03:45;99581.00;;;8.50
20092;BMP180;10205;49.678;6.560;2022-11-14T07:06:16;99573.00;;;8.50
20092;BMP180;10205;49.678;6.560;2022-11-14T07:08:45;99583.00;;;8.50
20092;BMP180;10205;49.678;6.560;2022-11-14T07:11:17;99586.00;;;8.50
20092;BMP180;10205;49.678;6.560;2022-11-14T07:13:49;99599.00;;;8.50
20092;BMP180;10205;49.678;6.560;2022-11-14T07:16:16;99599.00;;;8.60
20092;BMP180;10205;49.678;6.560;2022-11-14T07:18:44;99603.00;;;8.60
20092;BMP180;10205;49.678;6.560;2022-11-14T07:21:11;99602.00;;;8.60
20092;BMP180;10205;49.678;6.560;2022-11-14T07:23:40;99604.00;;;8.60
20092;BMP180;10205;49.678;6.560;2022-11-14T07:26:10;99604.00;;;8.60
20092;BMP180;10205;49.678;6.560;2022-11-14T07:28:41;99605.00;;;8.70
20092;BMP180;10205;49.678;6.560;2022-11-14T07:31:11;99607.00;;;8.60
20092;BMP180;10205;49.678;6.560;2022-11-14T07:33:39;99608.00;;;8.60
20092;BMP180;10205;49.678;6.560;2022-11-14T07:36:08;99597.00;;;8.60
20092;BMP180;10205;49.678;6.560;2022-11-14T07:38:38;99613.00;;;8.60
20092;BMP180;10205;49.678;6.560;2022-11-14T07:41:08;99604.00;;;8.60
20092;BMP180;10205;49.678;6.560;2022-11-14T07:43:35;99600.00;;;8.60
20092;BMP180;10205;49.678;6.560;2022-11-14T07:46:07;99599.00;;;8.60
20092;BMP180;10205;49.678;6.560;2022-11-14T07:48:36;99599.00;;;8.60
20092;BMP180;10205;49.678;6.560;2022-11-14T07:51:07;99601.00;;;8.60
20092;BMP180;10205;49.678;6.560;2022-11-14T07:53:36;99597.00;;;8.60
20092;BMP180;10205;49.678;6.560;2022-11-14T07:56:05;99596.00;;;8.60
20092;BMP180;10205;49.678;6.560;2022-11-14T07:58:35;99598.00;;;8.60
20092;BMP180;10205;49.678;6.560;2022-11-14T08:01:07;99589.00;;;8.60
20092;BMP180;10205;49.678;6.560;2022-11-14T08:03:34;99583.00;;;8.60
20092;BMP180;10205;49.678;6.560;2022-11-14T08:06:03;99583.00;;;8.60
20092;BMP180;10205;49.678;6.560;2022-11-14T08:08:31;99586.00;;;8.60
20092;BMP180;10205;49.678;6.560;2022-11-14T08:11:00;99580.00;;;8.60
20092;BMP180;10205;49.678;6.560;2022-11-14T08:13:28;99575.00;;;8.60
20092;BMP180;10205;49.678;6.560;2022-11-14T08:15:55;99566.00;;;8.50
20092;BMP180;10205;49.678;6.560;2022-11-14T08:18:26;99574.00;;;8.60
20092;BMP180;10205;49.678;6.560;2022-11-14T08:20:53;99567.00;;;8.50
20092;BMP180;10205;49.678;6.560;2022-11-14T08:23:22;99560.00;;;8.50
20092;BMP180;10205;49.678;6.560;2022-11-14T08:25:49;99577.00;;;8.50
20092;BMP180;10205;49.678;6.560;2022-11-14T08:28:16;99545.00;;;8.60
20092;BMP180;10205;49.678;6.560;2022-11-14T08:30:44;99546.00;;;8.60
20092;BMP180;10205;49.678;6.560;2022-11-14T08:33:11;99547.00;;;8.60
20092;BMP180;10205;49.678;6.560;2022-11-14T08:35:40;99543.00;;;8.60
20092;BMP180;10205;49.678;6.560;2022-11-14T08:38:07;99547.00;;;8.60
20092;BMP180;10205;49.678;6.560;2022-11-14T08:40:35;99542.00;;;8.60
20092;BMP180;10205;49.678;6.560;2022-11-14T08:43:03;99556.00;;;8.70
20092;BMP180;10205;49.678;6.560;2022-11-14T08:45:30;99561.00;;;8.70
20092;BMP180;10205;49.678;6.560;2022-11-14T08:47:57;99569.00;;;8.70
20092;BMP180;10205;49.678;6.560;2022-11-14T08:50:25;99574.00;;;8.70
20092;BMP180;10205;49.678;6.560;2022-11-14T08:52:54;99578.00;;;8.70
20092;BMP180;10205;49.678;6.560;2022-11-14T08:55:21;99573.00;;;8.70
20092;BMP180;10205;49.678;6.560;2022-11-14T08:57:48;99582.00;;;8.70
20092;BMP180;10205;49.678;6.560;2022-11-14T09:00:20;99564.00;;;8.80
20092;BMP180;10205;49.678;6.560;2022-11-14T09:02:47;99574.00;;;8.80
20092;BMP180;10205;49.678;6.560;2022-11-14T09:05:14;99577.00;;;8.80
20092;BMP180;10205;49.678;6.560;2022-11-14T09:07:42;99588.00;;;8.80
20092;BMP180;10205;49.678;6.560;2022-11-14T09:10:10;99573.00;;;8.80
20092;BMP180;10205;49.678;6.560;2022-11-14T09:12:38;99562.00;;;8.80
20092;BMP180;10205;49.678;6.560;2022-11-14T09:15:06;99563.00;;;8.80
20092;BMP180;10205;49.678;6.560;2022-11-14T09:17:33;99572.00;;;8.80
20092;BMP180;10205;49.678;6.560;2022-11-14T09:20:00;99554.00;;;8.80
20092;BMP180;10205;49.678;6.560;2022-11-14T09:22:27;99556.00;;;8.80
20092;BMP180;10205;49.678;6.560;2022-11-14T09:24:54;99577.00;;;8.90
20092;BMP180;10205;49.678;6.560;2022-11-14T09:27:25;99566.00;;;8.90
20092;BMP180;10205;49.678;6.560;2022-11-14T09:29:52;99548.00;;;8.90
20092;BMP180;10205;49.678;6.560;2022-11-14T09:32:19;99564.00;;;8.90
20092;BMP180;10205;49.678;6.560;2022-11-14T09:34:48;99550.00;;;8.90
20092;BMP180;10205;49.678;6.560;2022-11-14T09:37:19;99573.00;;;8.90
20092;BMP180;10205;49.678;6.560;2022-11-14T09:39:47;99572.00;;;8.90
20092;BMP180;10205;49.678;6.560;2022-11-14T09:42:33;99574.00;;;8.90
20092;BMP180;10205;49.678;6.560;2022-11-14T09:45:11;99571.00;;;8.90
20092;BMP180;10205;49.678;6.560;2022-11-14T09:47:44;99582.00;;;8.90
20092;BMP180;10205;49.678;6.560;2022-11-14T09:50:16;99577.00;;;8.90
20092;BMP180;10205;49.678;6.560;2022-11-14T09:52:51;99578.00;;;8.90
20092;BMP180;10205;49.678;6.560;2022-11-14T09:55:24;99557.00;;;9.00
20092;BMP180;10205;49.678;6.560;2022-11-14T09:57:57;99579.00;;;9.00
20092;BMP180;10205;49.678;6.560;2022-11-14T10:00:28;99573.00;;;9.00
20092;BMP180;10205;49.678;6.560;2022-11-14T10:03:11;99532.00;;;8.90
20092;BMP180;10205;49.678;6.560;2022-11-14T10:05:59;99563.00;;;9.00
20092;BMP180;10205;49.678;6.560;2022-11-14T10:08:46;99562.00;;;9.00
20092;BMP180;10205;49.678;6.560;2022-11-14T10:11:23;99554.00;;;9.00
20092;BMP180;10205;49.678;6.560;2022-11-14T10:17:40;99563.00;;;9.00
20092;BMP180;10205;49.678;6.560;2022-11-14T10:20:22;99553.00;;;9.00
20092;BMP180;10205;49.678;6.560;2022-11-14T10:23:25;99544.00;;;9.10
20092;BMP180;10205;49.678;6.560;2022-11-14T10:26:11;99530.00;;;9.10
20092;BMP180;10205;49.678;6.560;2022-11-14T10:29:00;99550.00;;;9.10
20092;BMP180;10205;49.678;6.560;2022-11-14T10:31:43;99538.00;;;9.10
20092;BMP180;10205;49.678;6.560;2022-11-14T10:34:22;99535.00;;;9.10
20092;BMP180;10205;49.678;6.560;2022-11-14T10:37:05;99531.00;;;9.10
20092;BMP180;10205;49.678;6.560;2022-11-14T10:39:46;99542.00;;;9.10
20092;BMP180;10205;49.678;6.560;2022-11-14T10:42:27;99544.00;;;9.10
20092;BMP180;10205;49.678;6.560;2022-11-14T10:45:05;99551.00;;;9.00
20092;BMP180;10205;49.678;6.560;2022-11-14T10:47:39;99525.00;;;9.20
20092;BMP180;10205;49.678;6.560;2022-11-14T10:50:18;99537.00;;;9.20
20092;BMP180;10205;49.678;6.560;2022-11-14T10:52:51;99521.00;;;9.20
20092;BMP180;10205;49.678;6.560;2022-11-14T10:55:22;99518.00;;;9.30
20092;BMP180;10205;49.678;6.560;2022-11-14T10:57:50;99529.00;;;9.30
20092;BMP180;10205;49.678;6.560;2022-11-14T11:00:22;99517.00;;;9.30
20092;BMP180;10205;49.678;6.560;2022-11-14T11:02:54;99503.00;;;9.40
20092;BMP180;10205;49.678;6.560;2022-11-14T11:05:28;99508.00;;;9.40
20092;BMP180;10205;49.678;6.560;2022-11-14T11:07:58;99497.00;;;9.40
20092;BMP180;10205;49.678;6.560;2022-11-14T11:10:46;99501.00;;;9.40
20092;BMP180;10205;49.678;6.560;2022-11-14T11:13:34;99507.00;;;9.40
20092;BMP180;10205;49.678;6.560;2022-11-14T11:16:10;99500.00;;;9.50
20092;BMP180;10205;49.678;6.560;2022-11-14T11:18:38;99512.00;;;9.50
20092;BMP180;10205;49.678;6.560;2022-11-14T11:21:09;99506.00;;;9.50
20092;BMP180;10205;49.678;6.560;2022-11-14T11:23:49;99507.00;;;9.50
20092;BMP180;10205;49.678;6.560;2022-11-14T11:26:22;99498.00;;;9.50
20092;BMP180;10205;49.678;6.560;2022-11-14T11:29:06;99501.00;;;9.60
20092;BMP180;10205;49.678;6.560;2022-11-14T11:31:52;99503.00;;;9.60
20092;BMP180;10205;49.678;6.560;2022-11-14T11:34:24;99496.00;;;9.60
20092;BMP180;10205;49.678;6.560;2022-11-14T11:36:59;99503.00;;;9.60
20092;BMP180;10205;49.678;6.560;2022-11-14T11:39:34;99489.00;;;9.60
20092;BMP180;10205;49.678;6.560;2022-11-14T11:42:10;99495.00;;;9.70
20092;BMP180;10205;49.678;6.560;2022-11-14T11:44:46;99491.00;;;9.70
20092;BMP180;10205;49.678;6.560;2022-11-14T11:47:20;99500.00;;;9.70
20092;BMP180;10205;49.678;6.560;2022-11-14T11:49:52;99492.00;;;9.70
20092;BMP180;10205;49.678;6.560;2022-11-14T11:52:29;99501.00;;;9.80
20092;BMP180;10205;49.678;6.560;2022-11-14T11:55:12;99496.00;;;9.80
20092;BMP180;10205;49.678;6.560;2022-11-14T11:57:45;99496.00;;;9.80
20092;BMP180;10205;49.678;6.560;2022-11-14T12:00:16;99494.00;;;9.80
20092;BMP180;10205;49.678;6.560;2022-11-14T12:02:51;99483.00;;;9.80
20092;BMP180;10205;49.678;6.560;2022-11-14T12:05:31;99497.00;;;9.90
20092;BMP180;10205;49.678;6.560;2022-11-14T12:08:03;99496.00;;;9.90
20092;BMP180;10205;49.678;6.560;2022-11-14T12:10:37;99495.00;;;9.90
20092;BMP180;10205;49.678;6.560;2022-11-14T12:13:51;99498.00;;;9.90
20092;BMP180;10205;49.678;6.560;2022-11-14T12:16:39;99490.00;;;9.90
20092;BMP180;10205;49.678;6.560;2022-11-14T12:19:41;99485.00;;;10.00
20092;BMP180;10205;49.678;6.560;2022-11-14T12:22:48;99488.00;;;10.00
20092;BMP180;10205;49.678;6.560;2022-11-14T12:26:05;99482.00;;;10.00
20092;BMP180;10205;49.678;6.560;2022-11-14T12:29:05;99468.00;;;10.00
20092;BMP180;10205;49.678;6.560;2022-11-14T12:31:39;99483.00;;;10.00
20092;BMP180;10205;49.678;6.560;2022-11-14T12:34:25;99487.00;;;10.00
20092;BMP180;10205;49.678;6.560;2022-11-14T12:36:56;99481.00;;;10.10
20092;BMP180;10205;49.678;6.560;2022-11-14T12:39:27;99481.00;;;10.10
20092;BMP180;10205;49.678;6.560;2022-11-14T12:42:01;99478.00;;;10.10
20092;BMP180;10205;49.678;6.560;2022-11-14T12:44:38;99480.00;;;10.20
20092;BMP180;10205;49.678;6.560;2022-11-14T12:47:17;99467.00;;;10.20
20092;BMP180;10205;49.678;6.560;2022-11-14T12:52:49;99478.00;;;10.20
20092;BMP180;10205;49.678;6.560;2022-11-14T12:56:02;99477.00;;;10.20
20092;BMP180;10205;49.678;6.560;2022-11-14T12:59:08;99468.00;;;10.20
20092;BMP180;10205;49.678;6.560;2022-11-14T13:01:52;99480.00;;;10.20
20092;BMP180;10205;49.678;6.560;2022-11-14T13:04:34;99461.00;;;10.30
20092;BMP180;10205;49.678;6.560;2022-11-14T13:07:27;99469.00;;;10.30
20092;BMP180;10205;49.678;6.560;2022-11-14T13:10:22;99468.00;;;10.30
20092;BMP180;10205;49.678;6.560;2022-11-14T13:13:00;99462.00;;;10.30
20092;BMP180;10205;49.678;6.560;2022-11-14T13:15:54;99468.00;;;10.40
20092;BMP180;10205;49.678;6.560;2022-11-14T13:18:55;99467.00;;;10.40
20092;BMP180;10205;49.678;6.560;2022-11-14T13:22:18;99461.00;;;10.40
20092;BMP180;10205;49.678;6.560;2022-11-14T13:25:23;99464.00;;;10.40
20092;BMP180;10205;49.678;6.560;2022-11-14T13:27:50;99457.00;;;10.40
20092;BMP180;10205;49.678;6.560;2022-11-14T13:31:06;99465.00;;;10.40
20092;BMP180;10205;49.678;6.560;2022-11-14T13:33:45;99454.00;;;10.40
20092;BMP180;10205;49.678;6.560;2022-11-14T13:36:28;99452.00;;;10.50
20092;BMP180;10205;49.678;6.560;2022-11-14T13:39:19;99465.00;;;10.50
20092;BMP180;10205;49.678;6.560;2022-11-14T13:42:22;99448.00;;;10.50
20092;BMP180;10205;49.678;6.560;2022-11-14T13:45:35;99452.00;;;10.50
20092;BMP180;10205;49.678;6.560;2022-11-14T13:49:04;99455.00;;;10.50
20092;BMP180;10205;49.678;6.560;2022-11-14T13:51:37;99459.00;;;10.50
20092;BMP180;10205;49.678;6.560;2022-11-14T13:54:10;99456.00;;;10.60
20092;BMP180;10205;49.678;6.560;2022-11-14T13:56:53;99466.00;;;10.60
20092;BMP180;10205;49.678;6.560;2022-11-14T13:59:43;99445.00;;;10.60
20092;BMP180;10205;49.678;6.560;2022-11-14T14:02:44;99447.00;;;10.60
20092;BMP180;10205;49.678;6.560;2022-11-14T14:05:31;99448.00;;;10.60
20092;BMP180;10205;49.678;6.560;2022-11-14T14:08:22;99445.00;;;10.60
20092;BMP180;10205;49.678;6.560;2022-11-14T14:11:16;99450.00;;;10.60
20092;BMP180;10205;49.678;6.560;2022-11-14T14:13:58;99441.00;;;10.60
20092;BMP180;10205;49.678;6.560;2022-11-14T14:16:37;99435.00;;;10.60
20092;BMP180;10205;49.678;6.560;2022-11-14T14:19:14;99453.00;;;10.70
20092;BMP180;10205;49.678;6.560;2022-11-14T14:21:54;99441.00;;;10.70
20092;BMP180;10205;49.678;6.560;2022-11-14T14:24:47;99468.00;;;10.70
20092;BMP180;10205;49.678;6.560;2022-11-14T14:27:25;99452.00;;;10.70
20092;BMP180;10205;49.678;6.560;2022-11-14T14:30:03;99459.00;;;10.70
20092;BMP180;10205;49.678;6.560;2022-11-14T14:32:34;99451.00;;;10.80
20092;BMP180;10205;49.678;6.560;2022-11-14T14:35:25;99456.00;;;10.80
20092;BMP180;10205;49.678;6.560;2022-11-14T14:37:56;99445.00;;;10.80
20092;BMP180;10205;49.678;6.560;2022-11-14T14:40:26;99448.00;;;10.80
20092;BMP180;10205;49.678;6.560;2022-11-14T14:42:54;99443.00;;;10.90
20092;BMP180;10205;49.678;6.560;2022-11-14T14:45:26;99437.00;;;10.90
20092;BMP180;10205;49.678;6.560;2022-11-14T14:48:02;99447.00;;;10.90
20092;BMP180;10205;49.678;6.560;2022-11-14T14:50:40;99445.00;;;10.90
20092;BMP180;10205;49.678;6.560;2022-11-14T14:53:19;99455.00;;;10.90
20092;BMP180;10205;49.678;6.560;2022-11-14T14:55:53;99458.00;;;10.90
20092;BMP180;10205;49.678;6.560;2022-11-14T14:58:26;99458.00;;;11.00